Griggsville, Illinois
Current Conditions -  °F | °C
As of 8:55 PM on Wednesday 26 Nov 2014 (Local Time) from KPPQ Reporting Station
Overcast Overcast  
Wind Chill: 24°   Ceiling: 400
Heat Index: 31°   Visibility: 3mi
Dew Point: 30°   Wind: 8mph
Humidity: 96%   Direction: 10°N
Pressure: 30.15"   Gusts: NA
Location:  39.71°N, 90.72°W
Report Text: KPPQ 270255Z AUTO 01007KT 3SM OVC004 00/M01 A3015 RMK AO2 T10051011 PWINO
Loading
Personal Weather Stations






























Interactive Weather Map New forecast layout! Learn more

10-Day Weather Forecast

Advertisements
Track Severe Weather on mobile